sensor_id;sensor_type;location;lat;lon;timestamp;P1;durP1;ratioP1;P2;durP2;ratioP2
50880;SDS011;36858;47.832;-3.800;2024-01-11T00:01:44;20.07;;;13.83;;
50880;SDS011;36858;47.832;-3.800;2024-01-11T00:04:12;20.03;;;13.43;;
50880;SDS011;36858;47.832;-3.800;2024-01-11T00:06:43;21.43;;;13.00;;
50880;SDS011;36858;47.832;-3.800;2024-01-11T00:09:10;18.70;;;12.93;;
50880;SDS011;36858;47.832;-3.800;2024-01-11T00:11:37;19.53;;;14.00;;
50880;SDS011;36858;47.832;-3.800;2024-01-11T00:14:04;23.53;;;15.43;;
50880;SDS011;36858;47.832;-3.800;2024-01-11T00:16:31;20.73;;;13.63;;
50880;SDS011;36858;47.832;-3.800;2024-01-11T00:18:58;22.70;;;13.67;;
50880;SDS011;36858;47.832;-3.800;2024-01-11T00:21:25;23.37;;;14.83;;
50880;SDS011;36858;47.832;-3.800;2024-01-11T00:23:52;24.40;;;14.80;;
50880;SDS011;36858;47.832;-3.800;2024-01-11T00:26:19;21.23;;;14.60;;
50880;SDS011;36858;47.832;-3.800;2024-01-11T00:28:46;20.73;;;14.07;;
50880;SDS011;36858;47.832;-3.800;2024-01-11T00:31:13;20.83;;;13.83;;
50880;SDS011;36858;47.832;-3.800;2024-01-11T00:33:40;22.00;;;14.03;;
50880;SDS011;36858;47.832;-3.800;2024-01-11T00:36:07;21.27;;;13.93;;
50880;SDS011;36858;47.832;-3.800;2024-01-11T00:38:34;21.87;;;14.23;;
50880;SDS011;36858;47.832;-3.800;2024-01-11T00:41:01;19.80;;;13.83;;
50880;SDS011;36858;47.832;-3.800;2024-01-11T00:43:28;23.53;;;14.67;;
50880;SDS011;36858;47.832;-3.800;2024-01-11T00:45:55;19.77;;;13.17;;
50880;SDS011;36858;47.832;-3.800;2024-01-11T00:48:22;20.90;;;13.73;;
50880;SDS011;36858;47.832;-3.800;2024-01-11T00:50:49;22.67;;;14.17;;
50880;SDS011;36858;47.832;-3.800;2024-01-11T00:53:16;20.47;;;13.17;;
50880;SDS011;36858;47.832;-3.800;2024-01-11T00:55:43;20.60;;;14.03;;
50880;SDS011;36858;47.832;-3.800;2024-01-11T00:58:10;20.50;;;12.30;;
50880;SDS011;36858;47.832;-3.800;2024-01-11T01:00:37;19.77;;;12.93;;
50880;SDS011;36858;47.832;-3.800;2024-01-11T01:03:04;21.87;;;13.87;;
50880;SDS011;36858;47.832;-3.800;2024-01-11T01:05:31;23.60;;;14.43;;
50880;SDS011;36858;47.832;-3.800;2024-01-11T01:07:58;21.77;;;14.03;;
50880;SDS011;36858;47.832;-3.800;2024-01-11T01:10:25;20.90;;;13.33;;
50880;SDS011;36858;47.832;-3.800;2024-01-11T01:12:52;20.70;;;13.87;;
50880;SDS011;36858;47.832;-3.800;2024-01-11T01:15:19;19.53;;;14.10;;
50880;SDS011;36858;47.832;-3.800;2024-01-11T01:17:46;23.30;;;14.43;;
50880;SDS011;36858;47.832;-3.800;2024-01-11T01:20:13;21.07;;;13.50;;
50880;SDS011;36858;47.832;-3.800;2024-01-11T01:22:41;22.30;;;13.00;;
50880;SDS011;36858;47.832;-3.800;2024-01-11T01:25:08;21.20;;;13.77;;
50880;SDS011;36858;47.832;-3.800;2024-01-11T01:27:35;21.87;;;14.10;;
50880;SDS011;36858;47.832;-3.800;2024-01-11T01:30:02;23.47;;;15.37;;
50880;SDS011;36858;47.832;-3.800;2024-01-11T01:32:29;22.10;;;15.00;;
50880;SDS011;36858;47.832;-3.800;2024-01-11T01:34:57;20.27;;;13.70;;
50880;SDS011;36858;47.832;-3.800;2024-01-11T01:37:24;18.77;;;12.77;;
50880;SDS011;36858;47.832;-3.800;2024-01-11T01:39:51;19.97;;;13.10;;
50880;SDS011;36858;47.832;-3.800;2024-01-11T01:42:18;21.90;;;14.13;;
50880;SDS011;36858;47.832;-3.800;2024-01-11T01:44:46;21.00;;;14.13;;
50880;SDS011;36858;47.832;-3.800;2024-01-11T01:47:13;21.03;;;14.70;;
50880;SDS011;36858;47.832;-3.800;2024-01-11T01:49:40;21.77;;;14.50;;
50880;SDS011;36858;47.832;-3.800;2024-01-11T01:52:07;22.00;;;14.03;;
50880;SDS011;36858;47.832;-3.800;2024-01-11T01:54:34;23.20;;;14.57;;
50880;SDS011;36858;47.832;-3.800;2024-01-11T01:57:01;23.43;;;14.73;;
50880;SDS011;36858;47.832;-3.800;2024-01-11T01:59:29;22.57;;;14.37;;
50880;SDS011;36858;47.832;-3.800;2024-01-11T02:01:57;22.70;;;14.63;;
50880;SDS011;36858;47.832;-3.800;2024-01-11T02:04:24;20.50;;;14.00;;
50880;SDS011;36858;47.832;-3.800;2024-01-11T02:06:51;20.10;;;13.37;;
50880;SDS011;36858;47.832;-3.800;2024-01-11T02:09:20;20.40;;;13.60;;
50880;SDS011;36858;47.832;-3.800;2024-01-11T02:11:47;21.87;;;14.00;;
50880;SDS011;36858;47.832;-3.800;2024-01-11T02:14:14;22.77;;;15.43;;
50880;SDS011;36858;47.832;-3.800;2024-01-11T02:16:41;19.67;;;13.07;;
50880;SDS011;36858;47.832;-3.800;2024-01-11T02:19:08;18.87;;;12.87;;
50880;SDS011;36858;47.832;-3.800;2024-01-11T02:21:42;21.17;;;12.87;;
50880;SDS011;36858;47.832;-3.800;2024-01-11T02:24:09;21.37;;;13.23;;
50880;SDS011;36858;47.832;-3.800;2024-01-11T02:26:36;20.40;;;13.90;;
50880;SDS011;36858;47.832;-3.800;2024-01-11T02:29:03;19.93;;;13.03;;
50880;SDS011;36858;47.832;-3.800;2024-01-11T02:31:30;20.13;;;13.13;;
50880;SDS011;36858;47.832;-3.800;2024-01-11T02:33:57;22.83;;;12.60;;
50880;SDS011;36858;47.832;-3.800;2024-01-11T02:36:24;20.80;;;13.10;;
50880;SDS011;36858;47.832;-3.800;2024-01-11T02:38:51;21.73;;;14.00;;
50880;SDS011;36858;47.832;-3.800;2024-01-11T02:41:19;21.23;;;13.53;;
50880;SDS011;36858;47.832;-3.800;2024-01-11T02:43:47;23.03;;;13.13;;
50880;SDS011;36858;47.832;-3.800;2024-01-11T02:46:15;21.70;;;13.13;;
50880;SDS011;36858;47.832;-3.800;2024-01-11T02:48:43;20.00;;;13.23;;
50880;SDS011;36858;47.832;-3.800;2024-01-11T02:51:10;19.53;;;12.93;;
50880;SDS011;36858;47.832;-3.800;2024-01-11T02:53:37;20.07;;;12.40;;
50880;SDS011;36858;47.832;-3.800;2024-01-11T02:56:04;22.10;;;12.87;;
50880;SDS011;36858;47.832;-3.800;2024-01-11T02:58:31;19.00;;;12.37;;
50880;SDS011;36858;47.832;-3.800;2024-01-11T03:00:58;20.53;;;12.77;;
50880;SDS011;36858;47.832;-3.800;2024-01-11T03:03:25;19.73;;;12.70;;
50880;SDS011;36858;47.832;-3.800;2024-01-11T03:05:52;21.53;;;13.70;;
50880;SDS011;36858;47.832;-3.800;2024-01-11T03:08:19;21.63;;;13.13;;
50880;SDS011;36858;47.832;-3.800;2024-01-11T03:10:46;19.43;;;13.47;;
50880;SDS011;36858;47.832;-3.800;2024-01-11T03:13:13;23.47;;;13.27;;
50880;SDS011;36858;47.832;-3.800;2024-01-11T03:15:40;22.43;;;13.33;;
50880;SDS011;36858;47.832;-3.800;2024-01-11T03:18:07;20.13;;;12.87;;
50880;SDS011;36858;47.832;-3.800;2024-01-11T03:20:34;18.10;;;12.60;;
50880;SDS011;36858;47.832;-3.800;2024-01-11T03:23:01;18.63;;;12.33;;
50880;SDS011;36858;47.832;-3.800;2024-01-11T03:25:29;19.93;;;12.63;;
50880;SDS011;36858;47.832;-3.800;2024-01-11T03:27:57;19.97;;;12.93;;
50880;SDS011;36858;47.832;-3.800;2024-01-11T03:30:24;19.53;;;13.03;;
50880;SDS011;36858;47.832;-3.800;2024-01-11T03:32:51;19.97;;;13.40;;
50880;SDS011;36858;47.832;-3.800;2024-01-11T03:35:20;19.73;;;13.17;;
50880;SDS011;36858;47.832;-3.800;2024-01-11T03:37:47;19.63;;;13.17;;
50880;SDS011;36858;47.832;-3.800;2024-01-11T03:40:14;21.00;;;12.50;;
50880;SDS011;36858;47.832;-3.800;2024-01-11T03:42:41;19.33;;;13.37;;
50880;SDS011;36858;47.832;-3.800;2024-01-11T03:45:09;20.37;;;13.37;;
50880;SDS011;36858;47.832;-3.800;2024-01-11T03:47:36;18.17;;;11.37;;
50880;SDS011;36858;47.832;-3.800;2024-01-11T03:50:04;18.80;;;13.03;;
50880;SDS011;36858;47.832;-3.800;2024-01-11T03:52:31;17.17;;;12.70;;
50880;SDS011;36858;47.832;-3.800;2024-01-11T03:54:58;19.97;;;13.77;;
50880;SDS011;36858;47.832;-3.800;2024-01-11T03:57:25;18.13;;;12.57;;
50880;SDS011;36858;47.832;-3.800;2024-01-11T03:59:52;20.33;;;13.03;;
50880;SDS011;36858;47.832;-3.800;2024-01-11T04:02:19;22.33;;;13.77;;
50880;SDS011;36858;47.832;-3.800;2024-01-11T04:04:46;21.47;;;13.33;;
50880;SDS011;36858;47.832;-3.800;2024-01-11T04:07:13;22.77;;;13.33;;
50880;SDS011;36858;47.832;-3.800;2024-01-11T04:09:40;21.40;;;13.10;;
50880;SDS011;36858;47.832;-3.800;2024-01-11T04:12:07;20.73;;;12.97;;
50880;SDS011;36858;47.832;-3.800;2024-01-11T04:14:37;22.03;;;12.77;;
50880;SDS011;36858;47.832;-3.800;2024-01-11T04:17:06;17.87;;;12.27;;
50880;SDS011;36858;47.832;-3.800;2024-01-11T04:19:33;19.60;;;13.10;;
50880;SDS011;36858;47.832;-3.800;2024-01-11T04:22:00;19.97;;;13.53;;
50880;SDS011;36858;47.832;-3.800;2024-01-11T04:24:26;20.83;;;13.43;;
50880;SDS011;36858;47.832;-3.800;2024-01-11T04:26:53;18.40;;;12.80;;
50880;SDS011;36858;47.832;-3.800;2024-01-11T04:29:20;20.03;;;12.53;;
50880;SDS011;36858;47.832;-3.800;2024-01-11T04:31:47;18.77;;;12.10;;
50880;SDS011;36858;47.832;-3.800;2024-01-11T04:34:14;21.90;;;13.40;;
50880;SDS011;36858;47.832;-3.800;2024-01-11T04:36:41;18.87;;;12.63;;
50880;SDS011;36858;47.832;-3.800;2024-01-11T04:39:08;19.93;;;12.70;;
50880;SDS011;36858;47.832;-3.800;2024-01-11T04:41:35;18.47;;;12.23;;
50880;SDS011;36858;47.832;-3.800;2024-01-11T04:44:03;20.90;;;13.37;;
50880;SDS011;36858;47.832;-3.800;2024-01-11T04:46:30;17.87;;;12.17;;
50880;SDS011;36858;47.832;-3.800;2024-01-11T04:48:57;20.83;;;12.87;;
50880;SDS011;36858;47.832;-3.800;2024-01-11T04:51:24;21.63;;;13.37;;
50880;SDS011;36858;47.832;-3.800;2024-01-11T04:53:51;17.67;;;12.40;;
50880;SDS011;36858;47.832;-3.800;2024-01-11T04:56:18;18.47;;;12.13;;
50880;SDS011;36858;47.832;-3.800;2024-01-11T04:58:45;18.47;;;11.77;;
50880;SDS011;36858;47.832;-3.800;2024-01-11T05:01:15;21.97;;;13.60;;
50880;SDS011;36858;47.832;-3.800;2024-01-11T05:03:43;19.70;;;12.67;;
50880;SDS011;36858;47.832;-3.800;2024-01-11T05:06:17;18.40;;;12.63;;
50880;SDS011;36858;47.832;-3.800;2024-01-11T05:08:54;24.30;;;13.93;;
50880;SDS011;36858;47.832;-3.800;2024-01-11T05:11:21;18.13;;;11.80;;
50880;SDS011;36858;47.832;-3.800;2024-01-11T05:13:51;18.03;;;11.97;;
50880;SDS011;36858;47.832;-3.800;2024-01-11T05:16:22;17.07;;;12.23;;
50880;SDS011;36858;47.832;-3.800;2024-01-11T05:18:50;17.80;;;11.93;;
50880;SDS011;36858;47.832;-3.800;2024-01-11T05:21:18;17.03;;;11.70;;
50880;SDS011;36858;47.832;-3.800;2024-01-11T05:23:45;19.60;;;11.53;;
50880;SDS011;36858;47.832;-3.800;2024-01-11T05:26:15;19.97;;;12.00;;
50880;SDS011;36858;47.832;-3.800;2024-01-11T05:28:42;18.03;;;12.07;;
50880;SDS011;36858;47.832;-3.800;2024-01-11T05:31:10;19.87;;;12.43;;
50880;SDS011;36858;47.832;-3.800;2024-01-11T05:33:38;19.03;;;11.93;;
50880;SDS011;36858;47.832;-3.800;2024-01-11T05:36:06;17.53;;;11.97;;
50880;SDS011;36858;47.832;-3.800;2024-01-11T05:38:33;17.83;;;12.20;;
50880;SDS011;36858;47.832;-3.800;2024-01-11T05:41:00;17.23;;;12.07;;
50880;SDS011;36858;47.832;-3.800;2024-01-11T05:43:28;17.60;;;11.87;;
50880;SDS011;36858;47.832;-3.800;2024-01-11T05:45:55;19.60;;;11.50;;
50880;SDS011;36858;47.832;-3.800;2024-01-11T05:48:22;16.57;;;12.17;;
50880;SDS011;36858;47.832;-3.800;2024-01-11T05:50:49;18.83;;;11.73;;
50880;SDS011;36858;47.832;-3.800;2024-01-11T05:53:17;16.37;;;11.37;;
50880;SDS011;36858;47.832;-3.800;2024-01-11T05:55:47;18.43;;;12.20;;
50880;SDS011;36858;47.832;-3.800;2024-01-11T05:58:18;17.27;;;12.43;;
50880;SDS011;36858;47.832;-3.800;2024-01-11T06:00:45;17.67;;;12.20;;
50880;SDS011;36858;47.832;-3.800;2024-01-11T06:03:12;21.63;;;12.47;;
50880;SDS011;36858;47.832;-3.800;2024-01-11T06:05:39;17.93;;;11.13;;
50880;SDS011;36858;47.832;-3.800;2024-01-11T06:08:07;18.37;;;12.63;;
50880;SDS011;36858;47.832;-3.800;2024-01-11T06:10:34;18.17;;;11.23;;
50880;SDS011;36858;47.832;-3.800;2024-01-11T06:13:00;21.87;;;12.60;;
50880;SDS011;36858;47.832;-3.800;2024-01-11T06:15:27;19.50;;;13.13;;
50880;SDS011;36858;47.832;-3.800;2024-01-11T06:17:54;18.37;;;12.63;;
50880;SDS011;36858;47.832;-3.800;2024-01-11T06:20:21;19.27;;;12.23;;
50880;SDS011;36858;47.832;-3.800;2024-01-11T06:22:48;21.17;;;12.07;;
50880;SDS011;36858;47.832;-3.800;2024-01-11T06:25:15;16.53;;;11.10;;
50880;SDS011;36858;47.832;-3.800;2024-01-11T06:27:42;19.13;;;12.07;;
50880;SDS011;36858;47.832;-3.800;2024-01-11T06:30:12;17.93;;;12.13;;
50880;SDS011;36858;47.832;-3.800;2024-01-11T06:32:39;16.80;;;11.70;;
50880;SDS011;36858;47.832;-3.800;2024-01-11T06:35:06;16.43;;;11.07;;
50880;SDS011;36858;47.832;-3.800;2024-01-11T06:37:34;15.13;;;11.13;;
50880;SDS011;36858;47.832;-3.800;2024-01-11T06:40:01;16.73;;;10.97;;
50880;SDS011;36858;47.832;-3.800;2024-01-11T06:42:27;14.87;;;10.53;;
50880;SDS011;36858;47.832;-3.800;2024-01-11T06:44:54;16.43;;;10.80;;
50880;SDS011;36858;47.832;-3.800;2024-01-11T06:47:21;16.93;;;10.53;;
50880;SDS011;36858;47.832;-3.800;2024-01-11T06:49:48;15.73;;;10.87;;
50880;SDS011;36858;47.832;-3.800;2024-01-11T06:52:15;16.97;;;10.73;;
50880;SDS011;36858;47.832;-3.800;2024-01-11T06:54:42;14.97;;;10.87;;
50880;SDS011;36858;47.832;-3.800;2024-01-11T06:57:09;16.20;;;11.33;;
50880;SDS011;36858;47.832;-3.800;2024-01-11T06:59:36;17.03;;;11.40;;
50880;SDS011;36858;47.832;-3.800;2024-01-11T07:02:03;17.13;;;11.47;;
50880;SDS011;36858;47.832;-3.800;2024-01-11T07:04:30;17.77;;;10.57;;
50880;SDS011;36858;47.832;-3.800;2024-01-11T07:07:00;17.53;;;10.90;;
50880;SDS011;36858;47.832;-3.800;2024-01-11T07:09:26;16.30;;;11.43;;
50880;SDS011;36858;47.832;-3.800;2024-01-11T07:11:53;16.13;;;11.23;;
50880;SDS011;36858;47.832;-3.800;2024-01-11T07:14:21;16.83;;;10.83;;
50880;SDS011;36858;47.832;-3.800;2024-01-11T07:16:48;16.70;;;11.27;;
50880;SDS011;36858;47.832;-3.800;2024-01-11T07:19:15;15.93;;;10.00;;
50880;SDS011;36858;47.832;-3.800;2024-01-11T07:21:42;14.53;;;10.23;;
50880;SDS011;36858;47.832;-3.800;2024-01-11T07:24:09;16.03;;;10.63;;
50880;SDS011;36858;47.832;-3.800;2024-01-11T07:26:36;15.53;;;10.63;;
50880;SDS011;36858;47.832;-3.800;2024-01-11T07:29:03;19.13;;;11.10;;
50880;SDS011;36858;47.832;-3.800;2024-01-11T07:31:31;18.90;;;11.83;;
50880;SDS011;36858;47.832;-3.800;2024-01-11T07:33:57;16.80;;;11.23;;
50880;SDS011;36858;47.832;-3.800;2024-01-11T07:36:24;16.33;;;10.50;;
50880;SDS011;36858;47.832;-3.800;2024-01-11T07:38:52;16.77;;;11.33;;
50880;SDS011;36858;47.832;-3.800;2024-01-11T07:41:21;15.83;;;11.23;;
50880;SDS011;36858;47.832;-3.800;2024-01-11T07:43:49;15.97;;;10.87;;
50880;SDS011;36858;47.832;-3.800;2024-01-11T07:46:20;18.30;;;10.80;;
50880;SDS011;36858;47.832;-3.800;2024-01-11T07:49:02;15.83;;;11.07;;
50880;SDS011;36858;47.832;-3.800;2024-01-11T07:51:29;18.03;;;11.50;;
50880;SDS011;36858;47.832;-3.800;2024-01-11T07:53:56;16.60;;;11.13;;
50880;SDS011;36858;47.832;-3.800;2024-01-11T07:56:23;19.43;;;11.00;;
50880;SDS011;36858;47.832;-3.800;2024-01-11T07:58:50;18.97;;;10.80;;
50880;SDS011;36858;47.832;-3.800;2024-01-11T08:01:17;19.90;;;11.60;;
50880;SDS011;36858;47.832;-3.800;2024-01-11T08:03:45;15.57;;;10.77;;
50880;SDS011;36858;47.832;-3.800;2024-01-11T08:06:12;15.87;;;10.63;;
50880;SDS011;36858;47.832;-3.800;2024-01-11T08:08:39;18.67;;;11.53;;
50880;SDS011;36858;47.832;-3.800;2024-01-11T08:11:06;15.23;;;10.97;;
50880;SDS011;36858;47.832;-3.800;2024-01-11T08:13:34;18.70;;;10.90;;
50880;SDS011;36858;47.832;-3.800;2024-01-11T08:16:01;17.47;;;11.77;;
50880;SDS011;36858;47.832;-3.800;2024-01-11T08:18:31;15.20;;;10.80;;
50880;SDS011;36858;47.832;-3.800;2024-01-11T08:20:58;20.57;;;10.70;;
50880;SDS011;36858;47.832;-3.800;2024-01-11T08:23:25;17.53;;;11.50;;
50880;SDS011;36858;47.832;-3.800;2024-01-11T08:25:51;18.50;;;10.50;;
50880;SDS011;36858;47.832;-3.800;2024-01-11T08:28:19;20.17;;;11.47;;
50880;SDS011;36858;47.832;-3.800;2024-01-11T08:30:47;20.60;;;11.70;;
50880;SDS011;36858;47.832;-3.800;2024-01-11T08:33:14;18.23;;;11.43;;
50880;SDS011;36858;47.832;-3.800;2024-01-11T08:35:41;18.13;;;11.07;;
50880;SDS011;36858;47.832;-3.800;2024-01-11T08:38:08;17.97;;;11.40;;
50880;SDS011;36858;47.832;-3.800;2024-01-11T08:40:36;17.33;;;10.70;;
50880;SDS011;36858;47.832;-3.800;2024-01-11T08:43:03;17.07;;;11.73;;
50880;SDS011;36858;47.832;-3.800;2024-01-11T08:45:30;18.70;;;11.53;;
50880;SDS011;36858;47.832;-3.800;2024-01-11T08:47:57;15.50;;;11.03;;
50880;SDS011;36858;47.832;-3.800;2024-01-11T08:50:24;16.37;;;11.00;;
50880;SDS011;36858;47.832;-3.800;2024-01-11T08:52:54;17.20;;;11.67;;
50880;SDS011;36858;47.832;-3.800;2024-01-11T08:55:22;16.87;;;11.50;;
50880;SDS011;36858;47.832;-3.800;2024-01-11T08:57:49;17.20;;;11.70;;
50880;SDS011;36858;47.832;-3.800;2024-01-11T09:00:16;16.67;;;10.87;;
50880;SDS011;36858;47.832;-3.800;2024-01-11T09:02:45;15.97;;;11.57;;
50880;SDS011;36858;47.832;-3.800;2024-01-11T09:05:16;18.57;;;11.20;;
50880;SDS011;36858;47.832;-3.800;2024-01-11T09:07:43;15.53;;;10.47;;
50880;SDS011;36858;47.832;-3.800;2024-01-11T09:10:10;16.00;;;10.73;;
50880;SDS011;36858;47.832;-3.800;2024-01-11T09:12:39;17.13;;;10.83;;
50880;SDS011;36858;47.832;-3.800;2024-01-11T09:15:06;15.93;;;10.23;;
50880;SDS011;36858;47.832;-3.800;2024-01-11T09:17:34;18.77;;;11.30;;
50880;SDS011;36858;47.832;-3.800;2024-01-11T09:20:01;17.17;;;11.20;;
50880;SDS011;36858;47.832;-3.800;2024-01-11T09:22:27;21.07;;;11.20;;
50880;SDS011;36858;47.832;-3.800;2024-01-11T09:24:54;16.90;;;10.40;;
50880;SDS011;36858;47.832;-3.800;2024-01-11T09:27:21;17.23;;;10.43;;
50880;SDS011;36858;47.832;-3.800;2024-01-11T09:29:49;15.53;;;10.47;;
50880;SDS011;36858;47.832;-3.800;2024-01-11T09:32:21;17.33;;;10.50;;
50880;SDS011;36858;47.832;-3.800;2024-01-11T09:34:48;16.43;;;10.70;;
50880;SDS011;36858;47.832;-3.800;2024-01-11T09:37:17;16.63;;;10.20;;
50880;SDS011;36858;47.832;-3.800;2024-01-11T09:39:44;16.33;;;10.53;;
50880;SDS011;36858;47.832;-3.800;2024-01-11T09:42:11;15.90;;;10.47;;
50880;SDS011;36858;47.832;-3.800;2024-01-11T09:44:38;14.57;;;9.83;;
50880;SDS011;36858;47.832;-3.800;2024-01-11T09:47:06;14.40;;;10.10;;
50880;SDS011;36858;47.832;-3.800;2024-01-11T09:49:39;17.10;;;10.50;;
50880;SDS011;36858;47.832;-3.800;2024-01-11T09:52:06;15.73;;;9.93;;
50880;SDS011;36858;47.832;-3.800;2024-01-11T09:54:36;15.83;;;9.93;;
50880;SDS011;36858;47.832;-3.800;2024-01-11T09:57:03;14.83;;;10.80;;
50880;SDS011;36858;47.832;-3.800;2024-01-11T09:59:31;17.13;;;11.13;;
50880;SDS011;36858;47.832;-3.800;2024-01-11T10:01:59;15.30;;;10.47;;
50880;SDS011;36858;47.832;-3.800;2024-01-11T10:04:27;14.97;;;10.67;;
50880;SDS011;36858;47.832;-3.800;2024-01-11T10:06:55;15.70;;;10.63;;
50880;SDS011;36858;47.832;-3.800;2024-01-11T10:09:23;14.93;;;11.50;;
50880;SDS011;36858;47.832;-3.800;2024-01-11T10:11:50;16.50;;;10.47;;
50880;SDS011;36858;47.832;-3.800;2024-01-11T10:14:17;17.37;;;10.53;;
50880;SDS011;36858;47.832;-3.800;2024-01-11T10:16:44;15.80;;;10.30;;
50880;SDS011;36858;47.832;-3.800;2024-01-11T10:19:12;14.17;;;10.00;;
50880;SDS011;36858;47.832;-3.800;2024-01-11T10:21:42;14.43;;;9.83;;
50880;SDS011;36858;47.832;-3.800;2024-01-11T10:24:09;17.77;;;10.87;;
50880;SDS011;36858;47.832;-3.800;2024-01-11T10:26:36;17.70;;;11.53;;
50880;SDS011;36858;47.832;-3.800;2024-01-11T10:29:03;15.60;;;10.63;;
50880;SDS011;36858;47.832;-3.800;2024-01-11T10:31:32;17.53;;;10.90;;
50880;SDS011;36858;47.832;-3.800;2024-01-11T10:34:01;14.20;;;10.20;;
50880;SDS011;36858;47.832;-3.800;2024-01-11T10:36:30;15.20;;;10.40;;
50880;SDS011;36858;47.832;-3.800;2024-01-11T10:38:58;15.80;;;10.37;;
50880;SDS011;36858;47.832;-3.800;2024-01-11T10:41:32;14.50;;;10.13;;
50880;SDS011;36858;47.832;-3.800;2024-01-11T10:44:01;15.20;;;11.17;;
50880;SDS011;36858;47.832;-3.800;2024-01-11T10:46:29;15.97;;;11.50;;
50880;SDS011;36858;47.832;-3.800;2024-01-11T10:48:58;16.67;;;10.60;;
50880;SDS011;36858;47.832;-3.800;2024-01-11T10:51:26;17.50;;;11.13;;
50880;SDS011;36858;47.832;-3.800;2024-01-11T10:53:54;16.70;;;11.27;;
50880;SDS011;36858;47.832;-3.800;2024-01-11T10:56:23;16.07;;;10.73;;
50880;SDS011;36858;47.832;-3.800;2024-01-11T10:58:50;14.67;;;11.77;;
50880;SDS011;36858;47.832;-3.800;2024-01-11T11:01:17;16.97;;;11.50;;
50880;SDS011;36858;47.832;-3.800;2024-01-11T11:03:45;16.27;;;10.33;;
50880;SDS011;36858;47.832;-3.800;2024-01-11T11:06:13;15.77;;;11.27;;
50880;SDS011;36858;47.832;-3.800;2024-01-11T11:08:40;16.03;;;10.83;;
50880;SDS011;36858;47.832;-3.800;2024-01-11T11:11:08;15.03;;;10.17;;
50880;SDS011;36858;47.832;-3.800;2024-01-11T11:13:36;14.30;;;10.37;;
50880;SDS011;36858;47.832;-3.800;2024-01-11T11:16:04;16.53;;;10.63;;
50880;SDS011;36858;47.832;-3.800;2024-01-11T11:18:32;17.00;;;10.60;;
50880;SDS011;36858;47.832;-3.800;2024-01-11T11:21:06;15.87;;;10.97;;
50880;SDS011;36858;47.832;-3.800;2024-01-11T11:23:36;19.83;;;11.30;;
50880;SDS011;36858;47.832;-3.800;2024-01-11T11:26:07;15.53;;;10.50;;
50880;SDS011;36858;47.832;-3.800;2024-01-11T11:28:43;16.03;;;10.60;;
50880;SDS011;36858;47.832;-3.800;2024-01-11T11:31:11;14.87;;;10.80;;
50880;SDS011;36858;47.832;-3.800;2024-01-11T11:33:40;13.40;;;9.40;;
50880;SDS011;36858;47.832;-3.800;2024-01-11T11:36:09;13.60;;;9.77;;
50880;SDS011;36858;47.832;-3.800;2024-01-11T11:38:42;15.57;;;10.33;;
50880;SDS011;36858;47.832;-3.800;2024-01-11T11:41:09;16.90;;;11.13;;
50880;SDS011;36858;47.832;-3.800;2024-01-11T11:43:36;15.67;;;9.97;;
50880;SDS011;36858;47.832;-3.800;2024-01-11T11:46:03;15.33;;;10.60;;
50880;SDS011;36858;47.832;-3.800;2024-01-11T11:53:31;17.07;;;10.67;;
50880;SDS011;36858;47.832;-3.800;2024-01-11T11:56:00;16.37;;;9.43;;
50880;SDS011;36858;47.832;-3.800;2024-01-11T11:58:31;16.10;;;10.13;;
50880;SDS011;36858;47.832;-3.800;2024-01-11T12:01:00;14.13;;;10.07;;
50880;SDS011;36858;47.832;-3.800;2024-01-11T12:03:31;15.10;;;10.47;;
50880;SDS011;36858;47.832;-3.800;2024-01-11T12:06:04;14.63;;;9.67;;
50880;SDS011;36858;47.832;-3.800;2024-01-11T12:08:33;13.97;;;9.47;;
50880;SDS011;36858;47.832;-3.800;2024-01-11T12:11:02;14.90;;;9.97;;
50880;SDS011;36858;47.832;-3.800;2024-01-11T12:13:30;13.47;;;9.13;;
50880;SDS011;36858;47.832;-3.800;2024-01-11T12:15:59;14.90;;;10.27;;
50880;SDS011;36858;47.832;-3.800;2024-01-11T12:18:26;16.67;;;10.17;;
50880;SDS011;36858;47.832;-3.800;2024-01-11T12:20:54;14.57;;;9.33;;
50880;SDS011;36858;47.832;-3.800;2024-01-11T12:23:20;12.83;;;9.63;;
50880;SDS011;36858;47.832;-3.800;2024-01-11T12:25:47;15.00;;;10.03;;
50880;SDS011;36858;47.832;-3.800;2024-01-11T12:28:14;12.43;;;9.63;;
50880;SDS011;36858;47.832;-3.800;2024-01-11T12:30:42;14.07;;;9.37;;
50880;SDS011;36858;47.832;-3.800;2024-01-11T12:33:09;12.07;;;8.87;;
50880;SDS011;36858;47.832;-3.800;2024-01-11T12:35:37;12.43;;;8.10;;
50880;SDS011;36858;47.832;-3.800;2024-01-11T12:38:04;11.93;;;8.27;;
50880;SDS011;36858;47.832;-3.800;2024-01-11T12:40:33;13.13;;;8.80;;
50880;SDS011;36858;47.832;-3.800;2024-01-11T12:43:01;11.50;;;8.63;;
50880;SDS011;36858;47.832;-3.800;2024-01-11T12:45:28;13.07;;;8.87;;
50880;SDS011;36858;47.832;-3.800;2024-01-11T12:48:01;13.77;;;9.27;;
50880;SDS011;36858;47.832;-3.800;2024-01-11T12:50:30;11.53;;;8.40;;
50880;SDS011;36858;47.832;-3.800;2024-01-11T12:53:09;14.70;;;9.10;;
50880;SDS011;36858;47.832;-3.800;2024-01-11T12:55:46;11.97;;;8.70;;
50880;SDS011;36858;47.832;-3.800;2024-01-11T12:58:23;13.17;;;8.63;;
50880;SDS011;36858;47.832;-3.800;2024-01-11T13:00:53;12.60;;;9.20;;
50880;SDS011;36858;47.832;-3.800;2024-01-11T13:03:20;12.70;;;8.90;;
50880;SDS011;36858;47.832;-3.800;2024-01-11T13:05:48;14.43;;;9.50;;
50880;SDS011;36858;47.832;-3.800;2024-01-11T13:08:15;12.13;;;8.50;;
50880;SDS011;36858;47.832;-3.800;2024-01-11T13:10:46;11.77;;;8.10;;
50880;SDS011;36858;47.832;-3.800;2024-01-11T13:13:15;11.27;;;8.17;;
50880;SDS011;36858;47.832;-3.800;2024-01-11T13:15:42;13.17;;;8.33;;
50880;SDS011;36858;47.832;-3.800;2024-01-11T13:18:09;11.67;;;8.10;;
50880;SDS011;36858;47.832;-3.800;2024-01-11T13:20:36;10.97;;;8.03;;
50880;SDS011;36858;47.832;-3.800;2024-01-11T13:23:13;10.70;;;7.47;;
50880;SDS011;36858;47.832;-3.800;2024-01-11T13:25:49;11.47;;;8.03;;
50880;SDS011;36858;47.832;-3.800;2024-01-11T13:28:16;10.57;;;6.90;;
50880;SDS011;36858;47.832;-3.800;2024-01-11T13:30:45;14.27;;;7.80;;
50880;SDS011;36858;47.832;-3.800;2024-01-11T13:33:13;9.37;;;7.17;;
50880;SDS011;36858;47.832;-3.800;2024-01-11T13:35:43;13.50;;;8.47;;
50880;SDS011;36858;47.832;-3.800;2024-01-11T13:38:10;9.47;;;6.70;;
50880;SDS011;36858;47.832;-3.800;2024-01-11T13:40:37;11.87;;;7.77;;
50880;SDS011;36858;47.832;-3.800;2024-01-11T13:43:06;13.83;;;7.73;;
50880;SDS011;36858;47.832;-3.800;2024-01-11T13:45:33;10.03;;;6.80;;
50880;SDS011;36858;47.832;-3.800;2024-01-11T13:48:03;8.77;;;6.80;;
50880;SDS011;36858;47.832;-3.800;2024-01-11T13:50:31;10.17;;;6.80;;
50880;SDS011;36858;47.832;-3.800;2024-01-11T13:52:59;10.30;;;7.33;;
50880;SDS011;36858;47.832;-3.800;2024-01-11T13:55:27;9.47;;;7.90;;
50880;SDS011;36858;47.832;-3.800;2024-01-11T13:57:56;11.83;;;8.57;;
50880;SDS011;36858;47.832;-3.800;2024-01-11T14:00:22;11.93;;;7.97;;
50880;SDS011;36858;47.832;-3.800;2024-01-11T14:02:50;12.33;;;8.07;;
50880;SDS011;36858;47.832;-3.800;2024-01-11T14:05:17;13.00;;;8.33;;
50880;SDS011;36858;47.832;-3.800;2024-01-11T14:07:45;10.83;;;8.37;;
50880;SDS011;36858;47.832;-3.800;2024-01-11T14:10:13;10.83;;;8.17;;
50880;SDS011;36858;47.832;-3.800;2024-01-11T14:12:40;11.90;;;8.13;;
50880;SDS011;36858;47.832;-3.800;2024-01-11T14:15:08;10.90;;;8.07;;
50880;SDS011;36858;47.832;-3.800;2024-01-11T14:17:39;11.17;;;6.97;;
50880;SDS011;36858;47.832;-3.800;2024-01-11T14:20:08;11.93;;;7.73;;